Time;durP1;ratioP1;P1;durP2;ratioP2;P2;SDS_P1;SDS_P2;PMS_P1;PMS_P2;Temp;Humidity;BMP_temperature;BMP_pressure;BME280_temperature;BME280_humidity;BME280_pressure;Samples;Min_cycle;Max_cycle;Signal;HPM_P1;HPM_P2
2022/12/22 03:26:19;;;;;;;12.93;10.00;;;7.40;99.90;;;;;;5099007;28;20242;-72
2022/12/22 03:28:45;;;;;;;14.70;10.17;;;7.40;99.90;;;;;;5097373;28;20783;-73
2022/12/22 03:31:11;;;;;;;13.93;10.20;;;7.40;99.90;;;;;;5093331;28;20295;-73
2022/12/22 03:33:38;;;;;;;12.50;9.63;;;7.40;99.90;;;;;;5080299;28;20692;-74
2022/12/22 03:36:05;;;;;;;15.03;9.40;;;7.40;99.90;;;;;;5079752;28;20280;-73
2022/12/22 03:38:30;;;;;;;12.70;9.63;;;7.40;99.90;;;;;;5111295;28;20211;-72
2022/12/22 03:40:56;;;;;;;14.63;9.47;;;7.40;99.90;;;;;;5089292;28;20293;-73
2022/12/22 03:49:11;;;;;;;13.37;9.77;;;7.40;99.90;;;;;;5084055;28;20241;-73
2022/12/22 03:51:44;;;;;;;12.90;9.63;;;7.40;99.90;;;;;;5089226;28;20253;-74
2022/12/22 03:54:15;;;;;;;11.97;9.70;;;7.40;99.90;;;;;;5081431;28;20289;-73
2022/12/22 03:56:42;;;;;;;14.93;10.47;;;7.40;99.90;;;;;;5109213;28;20636;-73
2022/12/22 03:59:07;;;;;;;13.37;10.70;;;7.40;99.90;;;;;;5111948;28;20213;-72
2022/12/22 04:01:38;;;;;;;14.83;10.67;;;7.40;99.90;;;;;;5078417;28;20222;-72
2022/12/22 04:04:04;;;;;;;15.67;10.60;;;7.40;99.90;;;;;;5088748;28;20213;-72
2022/12/22 04:06:30;;;;;;;14.40;11.40;;;7.30;99.90;;;;;;5091157;28;20210;-71
2022/12/22 04:08:55;;;;;;;14.77;10.83;;;7.30;99.90;;;;;;5073327;28;20666;-73
2022/12/22 04:14:05;;;;;;;15.27;11.73;;;7.30;99.90;;;;;;5086016;28;20221;-73
2022/12/22 04:16:31;;;;;;;16.37;11.80;;;7.30;99.90;;;;;;5091286;28;20202;-72
2022/12/22 04:18:57;;;;;;;16.33;12.67;;;7.30;99.90;;;;;;5082631;28;20238;-73
2022/12/22 04:21:23;;;;;;;17.13;12.73;;;7.30;99.90;;;;;;5069051;28;20282;-73
2022/12/22 04:23:51;;;;;;;17.77;13.03;;;7.30;99.90;;;;;;5073228;28;20332;-74
2022/12/22 04:26:22;;;;;;;18.00;13.33;;;7.30;99.90;;;;;;5090504;28;20676;-74
2022/12/22 04:28:49;;;;;;;17.83;13.07;;;7.30;99.90;;;;;;5087492;28;20206;-73
2022/12/22 04:31:15;;;;;;;19.30;12.90;;;7.30;99.90;;;;;;5090501;28;20237;-72
2022/12/22 04:33:40;;;;;;;20.50;13.40;;;7.30;99.90;;;;;;5072644;28;20688;-72
2022/12/22 04:36:07;;;;;;;16.83;13.00;;;7.40;99.90;;;;;;5091142;28;20264;-73
2022/12/22 04:38:33;;;;;;;19.13;13.07;;;7.30;99.90;;;;;;5089816;28;20210;-72
2022/12/22 04:40:59;;;;;;;19.30;13.43;;;7.40;99.90;;;;;;5089385;28;20218;-71
2022/12/22 04:43:24;;;;;;;20.47;13.67;;;7.40;99.90;;;;;;5089065;28;20210;-73
2022/12/22 04:45:54;;;;;;;19.50;13.43;;;7.40;99.90;;;;;;5071339;28;20202;-73
2022/12/22 04:48:21;;;;;;;17.93;12.23;;;7.40;99.90;;;;;;5083616;28;20241;-73
2022/12/22 04:50:50;;;;;;;20.73;13.80;;;7.40;99.90;;;;;;5071939;28;20166;-73
2022/12/22 04:53:16;;;;;;;19.20;13.27;;;7.40;99.90;;;;;;5071172;28;20198;-72
2022/12/22 04:55:55;;;;;;;20.77;14.53;;;7.40;99.90;;;;;;5087917;28;20686;-73
2022/12/22 04:58:21;;;;;;;18.83;13.27;;;7.40;99.90;;;;;;5087883;28;20198;-72
2022/12/22 05:00:46;;;;;;;24.53;16.00;;;7.40;99.90;;;;;;5071105;28;20407;-72
2022/12/22 05:03:12;;;;;;;18.63;14.43;;;7.40;99.90;;;;;;5089892;28;20288;-72
2022/12/22 05:05:37;;;;;;;24.30;15.33;;;7.50;99.90;;;;;;5090819;28;20175;-73
2022/12/22 05:08:04;;;;;;;23.47;14.90;;;7.50;99.90;;;;;;5089792;28;20206;-71
2022/12/22 05:10:30;;;;;;;19.70;14.93;;;7.50;99.90;;;;;;5089341;28;20228;-72
2022/12/22 05:12:56;;;;;;;21.53;14.77;;;7.50;99.90;;;;;;5071713;28;20696;-72
2022/12/22 05:15:24;;;;;;;21.77;15.23;;;7.50;99.90;;;;;;5068975;28;20597;-73
2022/12/22 05:17:50;;;;;;;19.47;14.90;;;7.50;99.90;;;;;;5090085;28;20679;-72
2022/12/22 05:20:16;;;;;;;21.10;15.20;;;7.50;99.90;;;;;;5069989;28;20198;-72
2022/12/22 05:22:41;;;;;;;23.43;15.97;;;7.50;99.90;;;;;;5071320;28;20214;-72
2022/12/22 05:25:08;;;;;;;20.93;14.73;;;7.50;99.90;;;;;;5089568;28;20681;-71
2022/12/22 05:27:33;;;;;;;24.20;16.53;;;7.60;99.90;;;;;;5090032;28;20216;-70
2022/12/22 05:29:59;;;;;;;21.50;15.53;;;7.50;99.90;;;;;;5089713;28;20696;-69
2022/12/22 05:32:24;;;;;;;22.77;16.33;;;7.60;99.90;;;;;;5089328;28;20195;-71
2022/12/22 05:34:50;;;;;;;21.63;15.87;;;7.60;99.90;;;;;;5089910;28;20226;-71
2022/12/22 05:37:16;;;;;;;22.83;16.73;;;7.60;99.90;;;;;;5071559;28;20222;-71
2022/12/22 05:39:41;;;;;;;22.77;15.30;;;7.60;99.90;;;;;;5089200;28;20281;-71
2022/12/22 05:42:07;;;;;;;21.83;15.47;;;7.60;99.90;;;;;;5090138;28;20201;-71
2022/12/22 05:44:32;;;;;;;23.53;16.87;;;7.60;99.90;;;;;;5071378;28;20288;-71
2022/12/22 05:46:58;;;;;;;21.83;15.17;;;7.60;99.90;;;;;;5089609;28;20222;-70
2022/12/22 05:49:24;;;;;;;20.87;15.37;;;7.60;99.90;;;;;;5088322;28;20203;-71
2022/12/22 05:51:52;;;;;;;21.43;15.90;;;7.70;99.90;;;;;;5089343;28;20206;-71
2022/12/22 05:54:18;;;;;;;26.00;16.30;;;7.60;99.90;;;;;;5067479;28;20195;-71
2022/12/22 05:56:44;;;;;;;21.73;15.73;;;7.70;99.90;;;;;;5090239;28;20258;-71
2022/12/22 05:59:10;;;;;;;22.57;15.13;;;7.60;99.90;;;;;;5085815;28;20198;-71
2022/12/22 06:01:36;;;;;;;22.07;15.67;;;7.70;99.90;;;;;;5082223;28;20300;-72
2022/12/22 06:04:01;;;;;;;21.67;16.30;;;7.70;99.90;;;;;;5083353;28;20285;-72
2022/12/22 06:06:27;;;;;;;23.83;15.80;;;7.70;99.90;;;;;;5088196;28;20209;-71
2022/12/22 06:08:53;;;;;;;19.70;14.93;;;7.70;99.90;;;;;;5083232;28;20637;-72
2022/12/22 06:11:18;;;;;;;23.53;16.33;;;7.70;99.90;;;;;;5086797;28;20211;-71
2022/12/22 06:13:45;;;;;;;25.70;17.47;;;7.70;99.90;;;;;;5075005;28;20242;-72
2022/12/22 06:16:11;;;;;;;23.33;16.40;;;7.70;99.90;;;;;;5086604;28;20262;-72
2022/12/22 06:18:36;;;;;;;23.83;15.33;;;7.70;99.90;;;;;;5071925;28;20588;-72
2022/12/22 06:21:02;;;;;;;26.83;17.53;;;7.70;99.90;;;;;;5090638;28;20167;-72
2022/12/22 06:23:28;;;;;;;25.73;16.87;;;7.70;99.90;;;;;;5088435;28;20596;-72
2022/12/22 06:25:59;;;;;;;24.87;16.50;;;7.70;99.90;;;;;;5071943;28;20213;-72
2022/12/22 06:28:25;;;;;;;26.13;17.93;;;7.70;99.90;;;;;;5082518;28;20232;-72
2022/12/22 06:30:51;;;;;;;26.27;16.23;;;7.70;99.90;;;;;;5087750;28;20699;-72
2022/12/22 06:33:17;;;;;;;25.03;17.30;;;7.80;99.90;;;;;;5073488;28;20198;-72
2022/12/22 06:35:43;;;;;;;22.97;16.50;;;7.80;99.90;;;;;;5089790;28;20613;-72
2022/12/22 06:38:08;;;;;;;22.23;16.10;;;7.80;99.90;;;;;;5089363;28;20228;-72
2022/12/22 06:40:34;;;;;;;22.10;15.83;;;7.80;99.90;;;;;;5092203;28;20308;-73
2022/12/22 06:43:08;;;;;;;22.17;15.10;;;7.80;99.90;;;;;;5086667;28;20245;-71
2022/12/22 06:45:38;;;;;;;21.27;15.57;;;7.80;99.90;;;;;;5048031;22;20319;-73
2022/12/22 06:48:05;;;;;;;21.50;15.80;;;7.80;99.90;;;;;;5006387;28;20173;-72
2022/12/22 06:50:31;;;;;;;24.07;15.80;;;7.80;99.90;;;;;;5050491;28;20218;-73
2022/12/22 06:52:56;;;;;;;20.87;15.63;;;7.80;99.90;;;;;;5049577;28;20298;-73
2022/12/22 06:55:22;;;;;;;26.77;16.23;;;7.90;99.90;;;;;;5051881;28;20211;-71
2022/12/22 06:57:48;;;;;;;22.80;15.90;;;7.90;99.90;;;;;;5036887;28;20448;-73
2022/12/22 07:00:14;;;;;;;24.60;15.40;;;7.90;99.90;;;;;;5050619;28;20266;-73
2022/12/22 07:02:39;;;;;;;22.80;15.83;;;7.90;99.90;;;;;;5051930;28;20245;-72
2022/12/22 07:05:05;;;;;;;26.93;16.40;;;7.90;99.90;;;;;;5052133;28;20578;-73
2022/12/22 07:07:31;;;;;;;21.90;15.67;;;7.90;99.90;;;;;;5045365;28;20233;-72
2022/12/22 07:09:56;;;;;;;23.30;15.27;;;7.90;99.90;;;;;;5053499;28;20219;-73
2022/12/22 07:12:23;;;;;;;26.70;15.23;;;7.90;99.90;;;;;;5052421;28;20190;-73
2022/12/22 07:14:49;;;;;;;25.13;16.00;;;7.90;99.90;;;;;;5042848;28;20342;-73
2022/12/22 07:17:14;;;;;;;26.30;16.40;;;7.90;99.90;;;;;;5057828;28;20736;-73
2022/12/22 07:19:40;;;;;;;26.13;15.83;;;7.90;99.90;;;;;;5045952;28;20246;-71
2022/12/22 07:22:06;;;;;;;24.80;16.17;;;8.00;99.90;;;;;;5050912;28;20219;-72
2022/12/22 07:24:32;;;;;;;24.43;16.23;;;8.00;99.90;;;;;;5048738;28;20215;-73
2022/12/22 07:26:57;;;;;;;24.60;16.20;;;8.00;99.90;;;;;;5028458;28;20184;-73
2022/12/22 07:29:23;;;;;;;22.83;15.47;;;8.00;99.90;;;;;;5052866;28;20216;-71
2022/12/22 07:31:49;;;;;;;22.30;14.87;;;8.00;99.90;;;;;;5048967;28;20211;-73
2022/12/22 07:34:15;;;;;;;22.10;16.17;;;8.00;99.90;;;;;;5027440;28;20211;-73
2022/12/22 07:36:40;;;;;;;24.90;15.87;;;8.00;99.90;;;;;;5054206;28;20210;-73
2022/12/22 07:39:06;;;;;;;20.93;15.10;;;8.00;99.90;;;;;;5049208;28;20192;-73
2022/12/22 07:44:16;;;;;;;23.57;15.17;;;8.00;99.90;;;;;;5056641;28;20597;-71
2022/12/22 07:46:42;;;;;;;22.93;15.63;;;8.00;99.90;;;;;;5047475;28;20203;-73
2022/12/22 07:51:56;;;;;;;23.10;15.57;;;8.10;99.90;;;;;;5048845;28;20262;-72
2022/12/22 07:54:22;;;;;;;25.93;14.67;;;8.10;99.90;;;;;;5044074;28;20249;-71
2022/12/22 07:56:47;;;;;;;20.13;14.53;;;8.10;99.90;;;;;;5053144;28;20176;-73
2022/12/22 07:59:13;;;;;;;22.93;15.20;;;8.10;99.90;;;;;;5053625;28;20272;-71
2022/12/22 08:01:40;;;;;;;20.87;15.57;;;8.10;99.90;;;;;;5042835;28;20269;-72
2022/12/22 08:04:07;;;;;;;22.10;15.40;;;8.10;99.90;;;;;;5055570;28;20212;-71
2022/12/22 08:06:33;;;;;;;23.97;15.53;;;8.10;99.90;;;;;;5055603;28;20269;-72
2022/12/22 08:08:59;;;;;;;20.73;14.30;;;8.10;99.90;;;;;;5024526;28;20184;-72
2022/12/22 08:11:25;;;;;;;25.07;14.57;;;8.10;99.90;;;;;;5048496;28;20211;-73
2022/12/22 08:13:50;;;;;;;21.80;14.80;;;8.20;99.90;;;;;;5045765;28;20255;-72
2022/12/22 08:16:16;;;;;;;20.40;14.53;;;8.10;99.90;;;;;;5053504;28;20523;-72
2022/12/22 08:18:43;;;;;;;20.37;14.23;;;8.20;99.90;;;;;;5033777;28;20215;-72
2022/12/22 08:21:09;;;;;;;20.67;14.93;;;8.10;99.90;;;;;;5044914;28;20189;-71
2022/12/22 08:23:35;;;;;;;22.80;14.83;;;8.20;99.90;;;;;;5057192;28;20176;-72
2022/12/22 08:26:10;;;;;;;20.87;14.90;;;8.20;99.90;;;;;;5050189;28;20204;-72
2022/12/22 08:28:41;;;;;;;20.93;13.33;;;8.20;99.90;;;;;;5043462;28;20209;-73
2022/12/22 08:31:07;;;;;;;21.77;14.20;;;8.20;99.90;;;;;;5046812;28;20241;-72
2022/12/22 08:33:33;;;;;;;17.67;12.93;;;8.20;99.90;;;;;;5048526;28;20208;-73
2022/12/22 08:35:58;;;;;;;21.57;14.60;;;8.20;99.90;;;;;;5023872;28;20196;-73
2022/12/22 08:38:24;;;;;;;18.03;13.83;;;8.20;99.90;;;;;;5054954;28;20198;-72
2022/12/22 08:40:50;;;;;;;18.20;13.20;;;8.30;99.90;;;;;;5044398;28;20213;-70
2022/12/22 08:43:17;;;;;;;18.87;13.43;;;8.30;99.90;;;;;;5039688;28;20778;-71
2022/12/22 08:45:43;;;;;;;20.93;13.77;;;8.30;99.90;;;;;;5051063;28;20249;-72
2022/12/22 08:48:11;;;;;;;19.60;14.10;;;8.30;99.90;;;;;;5045416;28;20192;-72
2022/12/22 08:50:37;;;;;;;20.73;14.00;;;8.30;99.90;;;;;;5049158;28;20182;-72
2022/12/22 08:53:04;;;;;;;19.60;14.07;;;8.30;99.90;;;;;;5049280;28;20208;-72
2022/12/22 08:55:30;;;;;;;20.20;14.30;;;8.30;99.90;;;;;;5025178;28;20252;-72
2022/12/22 08:57:56;;;;;;;22.07;14.50;;;8.30;99.90;;;;;;5053710;28;20218;-72
2022/12/22 09:00:22;;;;;;;17.83;13.17;;;8.30;99.90;;;;;;5049483;28;20171;-72
2022/12/22 09:02:48;;;;;;;15.80;12.43;;;8.30;99.90;;;;;;5044464;28;20192;-72
2022/12/22 09:05:13;;;;;;;16.70;12.67;;;8.30;99.90;;;;;;5034645;28;20209;-72
2022/12/22 09:07:40;;;;;;;18.13;12.87;;;8.30;99.90;;;;;;5042244;28;20227;-73
2022/12/22 09:10:07;;;;;;;18.87;12.47;;;8.30;99.90;;;;;;5049081;28;20207;-71
2022/12/22 09:12:33;;;;;;;21.80;12.50;;;8.30;99.90;;;;;;5046822;28;20225;-72
2022/12/22 09:14:59;;;;;;;18.43;12.53;;;8.30;99.90;;;;;;5033194;28;20262;-70
2022/12/22 09:17:25;;;;;;;17.43;12.57;;;8.40;99.90;;;;;;5052234;28;20203;-73
2022/12/22 09:19:51;;;;;;;17.17;11.93;;;8.30;99.90;;;;;;5048111;28;20913;-72
2022/12/22 09:22:16;;;;;;;18.97;12.27;;;8.40;99.90;;;;;;5045021;28;20772;-71
2022/12/22 09:24:42;;;;;;;18.87;13.03;;;8.40;99.90;;;;;;5051283;28;20219;-72
2022/12/22 09:27:08;;;;;;;18.27;13.07;;;8.40;99.90;;;;;;5049569;28;20176;-70
2022/12/22 09:29:37;;;;;;;19.67;12.30;;;8.40;99.90;;;;;;5043900;28;20254;-72
2022/12/22 09:32:03;;;;;;;16.20;11.97;;;8.40;99.90;;;;;;5052802;28;20203;-71
2022/12/22 09:34:29;;;;;;;16.37;11.97;;;8.40;99.90;;;;;;5047799;28;20203;-72
2022/12/22 09:36:55;;;;;;;18.17;12.07;;;8.40;99.90;;;;;;5046518;28;20215;-72
2022/12/22 09:39:20;;;;;;;14.73;10.93;;;8.40;99.90;;;;;;5053423;28;20170;-72
2022/12/22 09:41:55;;;;;;;19.83;11.93;;;8.40;99.90;;;;;;5044530;28;20226;-71
2022/12/22 09:44:43;;;;;;;19.87;12.77;;;8.40;99.90;;;;;;5032678;28;20861;-71
2022/12/22 09:47:37;;;;;;;19.70;12.37;;;8.40;99.90;;;;;;5053647;28;20726;-72
2022/12/22 09:50:05;;;;;;;18.73;12.53;;;8.40;99.90;;;;;;5044684;28;20606;-71
2022/12/22 09:52:33;;;;;;;17.87;11.97;;;8.40;99.90;;;;;;5056789;28;20717;-72
2022/12/22 09:55:00;;;;;;;17.67;11.77;;;8.40;99.90;;;;;;5048805;28;20218;-69
2022/12/22 09:57:30;;;;;;;17.83;11.83;;;8.40;99.90;;;;;;5031498;28;20228;-72
2022/12/22 10:00:17;;;;;;;16.43;11.53;;;8.50;99.90;;;;;;5036946;28;20259;-72
2022/12/22 10:03:07;;;;;;;16.30;10.90;;;8.50;99.90;;;;;;5046985;28;20294;-72
2022/12/22 10:05:42;;;;;;;20.97;11.83;;;8.50;99.90;;;;;;5055676;28;20212;-72
2022/12/22 10:08:11;;;;;;;25.37;12.77;;;8.50;99.90;;;;;;5057308;28;20306;-72
2022/12/22 10:10:37;;;;;;;20.67;11.27;;;8.50;99.90;;;;;;5049136;28;20207;-72
2022/12/22 10:13:16;;;;;;;20.77;13.13;;;8.50;99.90;;;;;;5056083;28;20204;-71
2022/12/22 10:15:41;;;;;;;17.73;10.80;;;8.50;99.90;;;;;;5047495;28;20223;-73
2022/12/22 10:18:12;;;;;;;14.73;11.23;;;8.50;99.90;;;;;;5053163;28;20177;-72
2022/12/22 10:20:39;;;;;;;16.70;12.77;;;8.60;99.90;;;;;;5032374;28;20212;-73
2022/12/22 10:23:24;;;;;;;15.13;11.27;;;8.60;99.90;;;;;;5041717;28;20239;-72
2022/12/22 10:25:56;;;;;;;17.20;11.73;;;8.60;99.90;;;;;;5053432;28;20260;-72
2022/12/22 10:28:26;;;;;;;16.77;12.37;;;8.60;99.90;;;;;;5050739;28;20299;-72
2022/12/22 10:31:13;;;;;;;17.27;11.67;;;8.60;99.90;;;;;;5047949;28;20211;-71
2022/12/22 10:33:39;;;;;;;15.17;10.83;;;8.60;99.90;;;;;;5054142;28;20219;-71
2022/12/22 10:36:06;;;;;;;24.13;16.97;;;8.60;99.90;;;;;;5046002;28;20180;-72
2022/12/22 10:38:53;;;;;;;15.63;11.73;;;8.70;99.90;;;;;;5054877;28;20746;-73
2022/12/22 10:41:24;;;;;;;19.00;12.13;;;8.70;99.90;;;;;;5047752;28;20277;-72
2022/12/22 10:43:56;;;;;;;16.43;11.17;;;8.70;99.90;;;;;;5043025;28;20574;-72
2022/12/22 10:46:39;;;;;;;16.87;11.03;;;8.80;99.90;;;;;;5048764;28;20699;-73
2022/12/22 10:49:15;;;;;;;15.50;11.17;;;8.80;99.90;;;;;;5048482;28;20644;-72
2022/12/22 10:51:43;;;;;;;22.50;14.00;;;8.70;99.90;;;;;;5048147;28;20211;-71
2022/12/22 10:54:22;;;;;;;18.47;11.63;;;8.80;99.90;;;;;;5052383;28;20201;-72
2022/12/22 10:57:17;;;;;;;16.07;11.10;;;8.80;99.90;;;;;;5024942;28;20176;-73
2022/12/22 10:59:46;;;;;;;16.90;11.20;;;8.80;99.90;;;;;;5051623;28;20239;-71
2022/12/22 11:02:24;;;;;;;15.07;10.50;;;8.80;99.90;;;;;;5048235;28;20282;-72
2022/12/22 11:04:50;;;;;;;17.63;11.87;;;8.80;99.90;;;;;;5044679;28;20211;-72
2022/12/22 11:07:17;;;;;;;13.13;10.83;;;8.80;99.90;;;;;;5055843;28;20202;-73
2022/12/22 11:09:42;;;;;;;15.87;10.67;;;8.80;99.90;;;;;;5045743;28;20295;-73
2022/12/22 11:12:25;;;;;;;12.93;9.93;;;8.80;99.90;;;;;;5052403;28;20220;-72
2022/12/22 11:15:12;;;;;;;14.97;10.47;;;8.80;99.90;;;;;;5030013;28;20220;-73
2022/12/22 11:18:02;;;;;;;15.97;11.50;;;8.80;99.90;;;;;;5009028;28;20220;-73
2022/12/22 11:20:34;;;;;;;17.47;9.83;;;8.90;99.90;;;;;;5050949;28;20336;-73
2022/12/22 11:23:29;;;;;;;14.57;10.50;;;8.90;99.90;;;;;;5046357;28;20315;-70
2022/12/22 11:26:03;;;;;;;14.67;10.93;;;8.90;99.90;;;;;;5050979;28;20298;-73
2022/12/22 11:28:49;;;;;;;14.50;10.47;;;8.90;99.90;;;;;;5053312;28;20250;-73
2022/12/22 11:32:01;;;;;;;14.50;11.03;;;8.90;99.90;;;;;;5047459;28;20214;-74
2022/12/22 11:34:34;;;;;;;12.57;9.50;;;9.00;99.90;;;;;;5010030;28;20302;-73
2022/12/22 11:37:25;;;;;;;12.17;10.43;;;9.00;99.90;;;;;;5044828;28;20215;-71
2022/12/22 11:39:59;;;;;;;13.20;10.37;;;9.00;99.90;;;;;;5051571;28;20214;-73
2022/12/22 11:42:31;;;;;;;12.10;10.43;;;9.00;99.90;;;;;;5048537;28;20245;-73
2022/12/22 11:44:59;;;;;;;12.37;9.90;;;9.10;99.90;;;;;;5042592;28;20208;-73
2022/12/22 11:47:39;;;;;;;13.40;10.00;;;9.10;99.90;;;;;;5055955;28;20198;-73
2022/12/22 11:50:37;;;;;;;13.93;10.03;;;9.10;99.90;;;;;;5045683;28;20214;-72
2022/12/22 11:53:18;;;;;;;13.13;10.17;;;9.10;99.90;;;;;;5053340;28;20812;-73
2022/12/22 11:56:12;;;;;;;12.47;10.10;;;9.10;99.90;;;;;;5047866;28;20219;-73
2022/12/22 11:58:59;;;;;;;15.70;11.13;;;9.10;99.90;;;;;;5052828;28;20692;-73
2022/12/22 12:01:34;;;;;;;13.80;10.47;;;9.10;99.90;;;;;;5049614;28;20207;-73
2022/12/22 12:03:59;;;;;;;13.03;10.13;;;9.20;99.90;;;;;;5044012;28;20226;-71
2022/12/22 12:06:56;;;;;;;13.67;9.33;;;9.20;99.90;;;;;;5052578;28;20257;-73
2022/12/22 12:09:44;;;;;;;12.80;9.67;;;9.20;99.90;;;;;;5025089;28;20657;-72
2022/12/22 12:12:28;;;;;;;15.77;10.33;;;9.20;99.90;;;;;;5045408;28;20195;-73
2022/12/22 12:14:59;;;;;;;13.93;9.33;;;9.20;99.90;;;;;;5050365;28;20616;-73
2022/12/22 12:17:32;;;;;;;12.70;9.77;;;9.20;99.90;;;;;;5046801;28;20211;-71
2022/12/22 12:20:16;;;;;;;13.43;10.67;;;9.10;99.90;;;;;;5034973;28;20216;-72
2022/12/22 12:22:57;;;;;;;17.67;11.23;;;9.20;99.90;;;;;;5048943;28;20218;-73
2022/12/22 12:25:44;;;;;;;12.50;10.60;;;9.10;99.90;;;;;;5043361;28;20206;-73
2022/12/22 12:28:25;;;;;;;12.60;10.47;;;9.20;99.90;;;;;;5030819;28;20211;-72
2022/12/22 12:30:57;;;;;;;12.40;9.93;;;9.10;99.90;;;;;;5042977;28;20212;-71
2022/12/22 12:33:43;;;;;;;14.20;10.43;;;9.10;99.90;;;;;;5035629;28;20179;-72
2022/12/22 12:36:27;;;;;;;17.27;10.37;;;9.20;99.90;;;;;;5056239;28;20279;-71
2022/12/22 12:39:04;;;;;;;13.47;10.83;;;9.20;99.90;;;;;;5040741;28;20183;-69
2022/12/22 12:41:34;;;;;;;14.00;10.33;;;9.20;99.90;;;;;;5053449;28;20207;-72
2022/12/22 12:44:02;;;;;;;12.60;9.73;;;9.20;99.90;;;;;;5044725;28;20798;-70
2022/12/22 12:46:49;;;;;;;13.70;9.97;;;9.30;99.90;;;;;;5073688;22;20258;-71
2022/12/22 12:49:57;;;;;;;13.53;10.40;;;9.30;99.90;;;;;;5065235;28;20206;-72
2022/12/22 12:52:57;;;;;;;14.30;9.77;;;9.20;99.90;;;;;;5001673;28;20215;-72
2022/12/22 12:55:24;;;;;;;13.27;9.77;;;9.20;99.90;;;;;;5077338;28;20222;-72
2022/12/22 12:57:51;;;;;;;13.70;10.70;;;9.20;99.90;;;;;;5068088;28;20215;-72
2022/12/22 13:00:32;;;;;;;13.13;9.80;;;9.20;99.90;;;;;;5068020;28;20221;-72
2022/12/22 13:03:01;;;;;;;14.83;9.83;;;9.20;99.90;;;;;;5070357;28;20234;-72
2022/12/22 13:05:30;;;;;;;15.80;9.87;;;9.30;99.90;;;;;;5064939;28;20210;-72
2022/12/22 13:08:24;;;;;;;14.53;9.93;;;9.30;99.90;;;;;;5070103;28;20223;-71
2022/12/22 13:10:53;;;;;;;12.83;9.80;;;9.30;99.90;;;;;;5067982;28;20293;-72
2022/12/22 13:13:24;;;;;;;11.27;9.07;;;9.30;99.90;;;;;;5069443;28;20285;-72
2022/12/22 13:16:02;;;;;;;16.43;10.03;;;9.30;99.90;;;;;;5069997;28;20788;-71
2022/12/22 13:18:33;;;;;;;13.10;9.37;;;9.30;99.90;;;;;;5069808;28;20645;-72
2022/12/22 13:21:00;;;;;;;11.67;9.23;;;9.30;99.90;;;;;;5069235;28;20175;-70
2022/12/22 13:23:36;;;;;;;14.60;8.87;;;9.30;99.90;;;;;;5069989;28;20658;-72
2022/12/22 13:26:17;;;;;;;10.83;8.23;;;9.30;99.90;;;;;;5067718;28;20210;-72
2022/12/22 13:28:52;;;;;;;10.50;8.30;;;9.30;99.90;;;;;;5063974;28;20206;-72
2022/12/22 13:31:21;;;;;;;12.90;8.87;;;9.30;99.90;;;;;;5067679;28;20251;-72
2022/12/22 13:34:02;;;;;;;8.80;7.83;;;9.30;99.90;;;;;;5069880;28;20203;-72
2022/12/22 13:36:30;;;;;;;8.63;7.80;;;9.30;99.90;;;;;;5068523;28;20298;-72
2022/12/22 13:39:04;;;;;;;11.47;8.70;;;9.30;99.90;;;;;;5069952;28;20240;-72
2022/12/22 13:41:32;;;;;;;10.87;8.83;;;9.30;99.90;;;;;;5069165;28;20624;-72
2022/12/22 13:44:12;;;;;;;10.70;8.70;;;9.30;99.90;;;;;;5069667;28;20235;-72
2022/12/22 13:46:38;;;;;;;9.97;8.60;;;9.30;99.90;;;;;;5068122;28;20215;-72
2022/12/22 13:49:08;;;;;;;10.13;8.27;;;9.30;99.90;;;;;;5069418;28;20207;-71
2022/12/22 13:51:36;;;;;;;10.43;7.87;;;9.30;99.90;;;;;;5065058;28;20226;-72
2022/12/22 13:54:07;;;;;;;10.97;8.40;;;9.30;99.90;;;;;;5069860;28;20171;-71
2022/12/22 13:56:44;;;;;;;11.90;8.87;;;9.30;99.90;;;;;;5069921;28;20207;-72
2022/12/22 13:59:34;;;;;;;11.10;9.10;;;9.30;99.90;;;;;;5066643;28;20265;-70
2022/12/22 14:02:08;;;;;;;13.07;8.77;;;9.30;99.90;;;;;;5069409;28;20222;-70
2022/12/22 14:04:35;;;;;;;10.83;8.60;;;9.30;99.90;;;;;;5069692;28;20207;-71
2022/12/22 14:07:16;;;;;;;11.63;8.83;;;9.30;99.90;;;;;;5069773;28;20276;-71
2022/12/22 14:09:49;;;;;;;12.27;8.97;;;9.30;99.90;;;;;;5063862;28;20228;-72
2022/12/22 14:12:27;;;;;;;11.93;9.37;;;9.30;99.90;;;;;;5069594;28;20214;-72
2022/12/22 14:14:54;;;;;;;10.70;9.50;;;9.20;99.90;;;;;;5065340;28;20195;-70
2022/12/22 14:17:33;;;;;;;12.20;9.80;;;9.30;99.90;;;;;;5069502;28;20268;-71
2022/12/22 14:20:23;;;;;;;15.83;9.60;;;9.30;99.90;;;;;;5066062;28;20648;-71
2022/12/22 14:23:06;;;;;;;11.67;9.33;;;9.30;99.90;;;;;;5065710;28;20218;-71
2022/12/22 14:25:36;;;;;;;15.67;10.20;;;9.20;99.90;;;;;;5064212;28;20628;-72
2022/12/22 14:28:30;;;;;;;15.53;10.33;;;9.20;99.90;;;;;;5066495;28;20285;-71
2022/12/22 14:30:58;;;;;;;15.33;9.70;;;9.20;99.90;;;;;;5064518;28;20234;-73
2022/12/22 14:33:26;;;;;;;15.77;9.97;;;9.20;99.90;;;;;;5073085;28;20572;-72
2022/12/22 14:36:15;;;;;;;12.20;9.97;;;9.20;99.90;;;;;;5073229;28;20327;-72
2022/12/22 14:38:43;;;;;;;11.77;9.13;;;9.20;99.90;;;;;;5070513;28;20215;-71
2022/12/22 14:41:40;;;;;;;12.33;9.93;;;9.20;99.90;;;;;;5070717;28;20218;-72
2022/12/22 14:44:17;;;;;;;12.80;9.17;;;9.20;99.90;;;;;;5072233;28;20206;-71
2022/12/22 14:46:43;;;;;;;12.87;9.70;;;9.20;99.90;;;;;;5072772;28;20214;-71
2022/12/22 14:49:15;;;;;;;12.73;9.17;;;9.20;99.90;;;;;;5072518;28;20211;-70
2022/12/22 14:51:41;;;;;;;10.67;8.63;;;9.20;99.90;;;;;;5072767;28;20207;-72
2022/12/22 14:54:19;;;;;;;10.00;8.60;;;9.20;99.90;;;;;;5072787;28;20838;-72
2022/12/22 14:56:49;;;;;;;9.77;8.13;;;9.20;99.90;;;;;;5069965;28;20202;-72
2022/12/22 14:59:24;;;;;;;11.27;8.60;;;9.20;99.90;;;;;;5070501;28;20213;-70
2022/12/22 15:02:02;;;;;;;11.13;7.97;;;9.20;99.90;;;;;;5066884;28;20210;-72
2022/12/22 15:04:29;;;;;;;9.83;8.40;;;9.10;99.90;;;;;;5071394;28;20209;-72
2022/12/22 15:07:16;;;;;;;9.93;8.00;;;9.20;99.90;;;;;;5072407;28;20218;-71
2022/12/22 15:09:42;;;;;;;9.93;7.97;;;9.10;99.90;;;;;;5070637;28;20210;-72
2022/12/22 15:12:14;;;;;;;10.00;8.37;;;9.20;99.90;;;;;;5072981;28;20183;-72
2022/12/22 15:14:40;;;;;;;11.27;8.37;;;9.10;99.90;;;;;;5073089;28;20203;-72
2022/12/22 15:17:19;;;;;;;12.43;8.53;;;9.20;99.90;;;;;;5072402;28;20698;-72
2022/12/22 15:19:45;;;;;;;11.20;8.70;;;9.20;99.90;;;;;;5071927;28;20581;-72
2022/12/22 15:22:11;;;;;;;12.57;9.27;;;9.20;99.90;;;;;;5070692;28;20215;-72
2022/12/22 15:24:36;;;;;;;12.40;9.30;;;9.20;99.90;;;;;;5072215;28;20206;-72
2022/12/22 15:27:02;;;;;;;12.27;9.67;;;9.20;99.90;;;;;;5072472;28;20195;-71
2022/12/22 15:29:28;;;;;;;11.67;8.77;;;9.20;99.90;;;;;;5066770;28;20255;-72
2022/12/22 15:31:53;;;;;;;11.40;9.10;;;9.20;99.90;;;;;;5070427;28;20203;-71
2022/12/22 15:34:25;;;;;;;12.10;9.47;;;9.20;99.90;;;;;;5063186;28;20227;-71
2022/12/22 15:36:51;;;;;;;13.77;9.67;;;9.20;99.90;;;;;;5071833;28;20647;-72
2022/12/22 15:39:18;;;;;;;10.87;8.77;;;9.20;99.90;;;;;;5070742;28;20179;-71
2022/12/22 15:41:44;;;;;;;14.20;10.30;;;9.20;99.90;;;;;;5069734;28;20198;-72
2022/12/22 15:44:10;;;;;;;14.50;10.87;;;9.20;99.90;;;;;;5070164;28;20207;-72
2022/12/22 15:46:38;;;;;;;14.63;11.20;;;9.20;99.90;;;;;;5070073;28;20221;-72
2022/12/22 15:49:11;;;;;;;13.93;10.17;;;9.20;99.90;;;;;;5070160;28;20211;-72
2022/12/22 15:51:37;;;;;;;14.73;11.00;;;9.20;99.90;;;;;;5066197;28;20709;-71
2022/12/22 15:54:03;;;;;;;16.37;11.47;;;9.20;99.90;;;;;;5070820;28;20168;-72
2022/12/22 15:56:32;;;;;;;15.37;12.00;;;9.20;99.90;;;;;;5071060;28;20264;-71
2022/12/22 15:59:00;;;;;;;15.87;12.17;;;9.20;99.90;;;;;;5069767;28;20230;-72
2022/12/22 16:01:25;;;;;;;17.70;11.57;;;9.20;99.90;;;;;;5067028;28;20207;-72
2022/12/22 16:03:51;;;;;;;16.63;12.10;;;9.20;99.90;;;;;;5071147;28;20264;-72
2022/12/22 16:06:18;;;;;;;16.27;12.20;;;9.20;99.90;;;;;;5069347;28;20641;-72
2022/12/22 16:08:49;;;;;;;17.53;12.23;;;9.20;99.90;;;;;;5070484;28;20201;-72
2022/12/22 16:11:16;;;;;;;18.53;13.83;;;9.20;99.90;;;;;;5069885;28;20246;-72
2022/12/22 16:13:41;;;;;;;18.33;13.10;;;9.20;99.90;;;;;;5071159;28;20216;-72
2022/12/22 16:16:07;;;;;;;21.73;13.83;;;9.20;99.90;;;;;;5070787;28;20215;-72
2022/12/22 16:18:33;;;;;;;22.83;15.77;;;9.10;99.90;;;;;;5071074;28;20202;-71
2022/12/22 16:21:06;;;;;;;18.80;13.53;;;9.10;99.90;;;;;;5070458;28;20257;-70
2022/12/22 16:23:33;;;;;;;18.90;13.87;;;9.10;99.90;;;;;;5070662;28;20250;-72
2022/12/22 16:26:00;;;;;;;21.37;13.83;;;9.10;99.90;;;;;;5070611;28;20616;-70
2022/12/22 16:28:26;;;;;;;20.80;14.50;;;9.00;99.90;;;;;;5067272;28;20248;-73
2022/12/22 16:30:52;;;;;;;20.10;14.40;;;9.10;99.90;;;;;;5068258;28;20223;-73
2022/12/22 16:33:18;;;;;;;22.30;14.87;;;9.10;99.90;;;;;;5069285;28;20182;-75
2022/12/22 16:35:44;;;;;;;21.43;14.97;;;9.10;99.90;;;;;;5069854;28;20195;-71
2022/12/22 16:38:10;;;;;;;22.03;15.40;;;9.00;99.90;;;;;;5070504;28;20702;-73